sensor_id;sensor_type;location;lat;lon;timestamp;P1;durP1;ratioP1;P2;durP2;ratioP2
72388;SDS011;60566;48.062;9.930;2022-09-24T00:00:51;20.13;;;12.60;;
72388;SDS011;60566;48.062;9.930;2022-09-24T00:03:18;18.27;;;12.23;;
72388;SDS011;60566;48.062;9.930;2022-09-24T00:05:44;23.50;;;13.55;;
72388;SDS011;60566;48.062;9.930;2022-09-24T00:08:10;19.70;;;13.32;;
72388;SDS011;60566;48.062;9.930;2022-09-24T00:10:35;23.40;;;13.85;;
72388;SDS011;60566;48.062;9.930;2022-09-24T00:13:01;20.40;;;13.45;;
72388;SDS011;60566;48.062;9.930;2022-09-24T00:15:27;25.67;;;14.57;;
72388;SDS011;60566;48.062;9.930;2022-09-24T00:17:52;20.55;;;13.85;;
72388;SDS011;60566;48.062;9.930;2022-09-24T00:20:19;20.83;;;12.02;;
72388;SDS011;60566;48.062;9.930;2022-09-24T00:22:44;21.45;;;13.20;;
72388;SDS011;60566;48.062;9.930;2022-09-24T00:25:10;19.33;;;12.50;;
72388;SDS011;60566;48.062;9.930;2022-09-24T00:27:35;20.63;;;11.93;;
72388;SDS011;60566;48.062;9.930;2022-09-24T00:30:00;19.98;;;12.30;;
72388;SDS011;60566;48.062;9.930;2022-09-24T00:32:26;23.33;;;11.68;;
72388;SDS011;60566;48.062;9.930;2022-09-24T00:34:51;25.67;;;12.82;;
72388;SDS011;60566;48.062;9.930;2022-09-24T00:37:18;18.88;;;11.98;;
72388;SDS011;60566;48.062;9.930;2022-09-24T00:39:44;18.85;;;11.85;;
72388;SDS011;60566;48.062;9.930;2022-09-24T00:42:09;15.80;;;10.82;;
72388;SDS011;60566;48.062;9.930;2022-09-24T00:44:47;20.85;;;10.95;;
72388;SDS011;60566;48.062;9.930;2022-09-24T00:47:14;17.17;;;10.75;;
72388;SDS011;60566;48.062;9.930;2022-09-24T00:49:43;19.90;;;10.18;;
72388;SDS011;60566;48.062;9.930;2022-09-24T00:52:09;16.77;;;10.38;;
72388;SDS011;60566;48.062;9.930;2022-09-24T00:54:36;14.55;;;10.18;;
72388;SDS011;60566;48.062;9.930;2022-09-24T00:57:02;13.98;;;9.55;;
72388;SDS011;60566;48.062;9.930;2022-09-24T00:59:27;16.17;;;10.05;;
72388;SDS011;60566;48.062;9.930;2022-09-24T01:01:53;17.92;;;10.45;;
72388;SDS011;60566;48.062;9.930;2022-09-24T01:04:19;16.92;;;9.60;;
72388;SDS011;60566;48.062;9.930;2022-09-24T01:06:45;16.48;;;11.05;;
72388;SDS011;60566;48.062;9.930;2022-09-24T01:09:11;16.77;;;9.55;;
72388;SDS011;60566;48.062;9.930;2022-09-24T01:11:40;16.00;;;9.68;;
72388;SDS011;60566;48.062;9.930;2022-09-24T01:14:17;15.00;;;8.90;;
72388;SDS011;60566;48.062;9.930;2022-09-24T01:16:59;14.52;;;9.10;;
72388;SDS011;60566;48.062;9.930;2022-09-24T01:19:38;18.05;;;8.98;;
72388;SDS011;60566;48.062;9.930;2022-09-24T01:22:23;14.50;;;8.82;;
72388;SDS011;60566;48.062;9.930;2022-09-24T01:24:57;15.73;;;9.77;;
72388;SDS011;60566;48.062;9.930;2022-09-24T01:27:28;19.70;;;9.57;;
72388;SDS011;60566;48.062;9.930;2022-09-24T01:30:03;15.38;;;9.95;;
72388;SDS011;60566;48.062;9.930;2022-09-24T01:32:32;14.55;;;8.85;;
72388;SDS011;60566;48.062;9.930;2022-09-24T01:34:59;15.55;;;9.90;;
72388;SDS011;60566;48.062;9.930;2022-09-24T01:37:27;16.88;;;9.32;;
72388;SDS011;60566;48.062;9.930;2022-09-24T01:39:53;14.60;;;9.40;;
72388;SDS011;60566;48.062;9.930;2022-09-24T01:42:20;16.15;;;10.13;;
72388;SDS011;60566;48.062;9.930;2022-09-24T01:44:47;14.85;;;9.20;;
72388;SDS011;60566;48.062;9.930;2022-09-24T01:47:15;16.45;;;8.88;;
72388;SDS011;60566;48.062;9.930;2022-09-24T01:49:43;14.85;;;9.20;;
72388;SDS011;60566;48.062;9.930;2022-09-24T01:52:09;16.45;;;9.93;;
72388;SDS011;60566;48.062;9.930;2022-09-24T01:54:40;17.13;;;8.90;;
72388;SDS011;60566;48.062;9.930;2022-09-24T01:57:06;15.30;;;9.82;;
72388;SDS011;60566;48.062;9.930;2022-09-24T01:59:38;16.45;;;10.10;;
72388;SDS011;60566;48.062;9.930;2022-09-24T02:02:08;13.20;;;9.43;;
72388;SDS011;60566;48.062;9.930;2022-09-24T02:04:38;12.35;;;8.27;;
72388;SDS011;60566;48.062;9.930;2022-09-24T02:07:08;17.15;;;8.98;;
72388;SDS011;60566;48.062;9.930;2022-09-24T02:09:35;14.05;;;8.73;;
72388;SDS011;60566;48.062;9.930;2022-09-24T02:12:03;13.40;;;7.97;;
72388;SDS011;60566;48.062;9.930;2022-09-24T02:16:55;12.33;;;7.63;;
72388;SDS011;60566;48.062;9.930;2022-09-24T02:19:23;13.82;;;8.18;;
72388;SDS011;60566;48.062;9.930;2022-09-24T02:21:52;15.00;;;8.18;;
72388;SDS011;60566;48.062;9.930;2022-09-24T02:24:18;15.10;;;8.32;;
72388;SDS011;60566;48.062;9.930;2022-09-24T02:26:46;10.98;;;7.43;;
72388;SDS011;60566;48.062;9.930;2022-09-24T02:29:11;12.73;;;7.47;;
72388;SDS011;60566;48.062;9.930;2022-09-24T02:31:37;13.57;;;7.38;;
72388;SDS011;60566;48.062;9.930;2022-09-24T02:34:05;12.02;;;7.28;;
72388;SDS011;60566;48.062;9.930;2022-09-24T02:36:33;13.23;;;7.38;;
72388;SDS011;60566;48.062;9.930;2022-09-24T02:39:00;11.27;;;7.55;;
72388;SDS011;60566;48.062;9.930;2022-09-24T02:41:25;11.57;;;7.38;;
72388;SDS011;60566;48.062;9.930;2022-09-24T02:43:52;11.32;;;7.47;;
72388;SDS011;60566;48.062;9.930;2022-09-24T02:46:17;12.57;;;7.53;;
72388;SDS011;60566;48.062;9.930;2022-09-24T02:48:43;14.25;;;7.22;;
72388;SDS011;60566;48.062;9.930;2022-09-24T02:51:08;11.82;;;6.72;;
72388;SDS011;60566;48.062;9.930;2022-09-24T02:53:34;12.23;;;7.03;;
72388;SDS011;60566;48.062;9.930;2022-09-24T02:56:01;12.73;;;7.20;;
72388;SDS011;60566;48.062;9.930;2022-09-24T02:58:27;12.52;;;7.28;;
72388;SDS011;60566;48.062;9.930;2022-09-24T03:00:53;11.70;;;6.55;;
72388;SDS011;60566;48.062;9.930;2022-09-24T03:03:19;10.35;;;7.05;;
72388;SDS011;60566;48.062;9.930;2022-09-24T03:05:44;12.05;;;7.13;;
72388;SDS011;60566;48.062;9.930;2022-09-24T03:08:10;12.65;;;7.18;;
72388;SDS011;60566;48.062;9.930;2022-09-24T03:10:35;12.70;;;7.10;;
72388;SDS011;60566;48.062;9.930;2022-09-24T03:13:02;13.98;;;7.63;;
72388;SDS011;60566;48.062;9.930;2022-09-24T03:15:27;10.10;;;6.70;;
72388;SDS011;60566;48.062;9.930;2022-09-24T03:17:52;10.82;;;6.70;;
72388;SDS011;60566;48.062;9.930;2022-09-24T03:20:18;10.13;;;6.82;;
72388;SDS011;60566;48.062;9.930;2022-09-24T03:22:43;11.80;;;7.45;;
72388;SDS011;60566;48.062;9.930;2022-09-24T03:25:08;13.73;;;7.50;;
72388;SDS011;60566;48.062;9.930;2022-09-24T03:27:34;12.93;;;7.65;;
72388;SDS011;60566;48.062;9.930;2022-09-24T03:30:01;14.85;;;7.78;;
72388;SDS011;60566;48.062;9.930;2022-09-24T03:32:26;12.35;;;7.55;;
72388;SDS011;60566;48.062;9.930;2022-09-24T03:34:51;10.43;;;7.05;;
72388;SDS011;60566;48.062;9.930;2022-09-24T03:37:17;10.82;;;7.18;;
72388;SDS011;60566;48.062;9.930;2022-09-24T03:39:42;11.55;;;7.50;;
72388;SDS011;60566;48.062;9.930;2022-09-24T03:42:07;9.90;;;6.82;;
72388;SDS011;60566;48.062;9.930;2022-09-24T03:44:33;12.38;;;7.22;;
72388;SDS011;60566;48.062;9.930;2022-09-24T03:46:59;10.68;;;6.90;;
72388;SDS011;60566;48.062;9.930;2022-09-24T03:49:25;12.18;;;7.15;;
72388;SDS011;60566;48.062;9.930;2022-09-24T03:51:50;15.18;;;7.35;;
72388;SDS011;60566;48.062;9.930;2022-09-24T03:54:16;11.68;;;7.03;;
72388;SDS011;60566;48.062;9.930;2022-09-24T03:56:41;17.63;;;8.05;;
72388;SDS011;60566;48.062;9.930;2022-09-24T03:59:07;11.73;;;7.53;;
72388;SDS011;60566;48.062;9.930;2022-09-24T04:01:34;15.43;;;7.72;;
72388;SDS011;60566;48.062;9.930;2022-09-24T04:04:01;11.25;;;7.03;;
72388;SDS011;60566;48.062;9.930;2022-09-24T04:06:26;13.70;;;7.93;;
72388;SDS011;60566;48.062;9.930;2022-09-24T04:08:51;11.40;;;7.47;;
72388;SDS011;60566;48.062;9.930;2022-09-24T04:11:17;13.07;;;7.28;;
72388;SDS011;60566;48.062;9.930;2022-09-24T04:13:42;14.25;;;7.97;;
72388;SDS011;60566;48.062;9.930;2022-09-24T04:16:08;13.25;;;8.48;;
72388;SDS011;60566;48.062;9.930;2022-09-24T04:18:33;12.73;;;8.13;;
72388;SDS011;60566;48.062;9.930;2022-09-24T04:21:00;12.10;;;8.05;;
72388;SDS011;60566;48.062;9.930;2022-09-24T04:23:26;12.57;;;8.73;;
72388;SDS011;60566;48.062;9.930;2022-09-24T04:25:51;13.23;;;7.68;;
72388;SDS011;60566;48.062;9.930;2022-09-24T04:28:17;16.15;;;8.32;;
72388;SDS011;60566;48.062;9.930;2022-09-24T04:30:42;13.63;;;8.50;;
72388;SDS011;60566;48.062;9.930;2022-09-24T04:33:07;11.75;;;7.10;;
72388;SDS011;60566;48.062;9.930;2022-09-24T04:35:35;11.32;;;7.05;;
72388;SDS011;60566;48.062;9.930;2022-09-24T04:38:02;12.32;;;7.10;;
72388;SDS011;60566;48.062;9.930;2022-09-24T04:40:28;11.85;;;7.07;;
72388;SDS011;60566;48.062;9.930;2022-09-24T04:42:53;13.10;;;6.88;;
72388;SDS011;60566;48.062;9.930;2022-09-24T04:45:19;10.32;;;6.97;;
72388;SDS011;60566;48.062;9.930;2022-09-24T04:47:45;12.05;;;7.18;;
72388;SDS011;60566;48.062;9.930;2022-09-24T04:50:11;12.15;;;7.07;;
72388;SDS011;60566;48.062;9.930;2022-09-24T04:52:36;10.10;;;6.63;;
72388;SDS011;60566;48.062;9.930;2022-09-24T04:55:04;9.70;;;5.85;;
72388;SDS011;60566;48.062;9.930;2022-09-24T04:57:30;10.88;;;5.93;;
72388;SDS011;60566;48.062;9.930;2022-09-24T04:59:56;11.95;;;6.45;;
72388;SDS011;60566;48.062;9.930;2022-09-24T05:02:21;11.45;;;6.28;;
72388;SDS011;60566;48.062;9.930;2022-09-24T05:04:46;8.98;;;5.50;;
72388;SDS011;60566;48.062;9.930;2022-09-24T05:07:12;8.85;;;6.03;;
72388;SDS011;60566;48.062;9.930;2022-09-24T05:09:37;13.57;;;7.95;;
72388;SDS011;60566;48.062;9.930;2022-09-24T05:12:04;14.00;;;6.70;;
72388;SDS011;60566;48.062;9.930;2022-09-24T05:14:30;9.98;;;5.70;;
72388;SDS011;60566;48.062;9.930;2022-09-24T05:16:55;8.10;;;5.60;;
72388;SDS011;60566;48.062;9.930;2022-09-24T05:19:21;13.15;;;6.35;;
72388;SDS011;60566;48.062;9.930;2022-09-24T05:21:46;9.02;;;6.15;;
72388;SDS011;60566;48.062;9.930;2022-09-24T05:24:12;10.23;;;5.72;;
72388;SDS011;60566;48.062;9.930;2022-09-24T05:26:38;9.60;;;6.35;;
72388;SDS011;60566;48.062;9.930;2022-09-24T05:29:06;8.50;;;6.13;;
72388;SDS011;60566;48.062;9.930;2022-09-24T05:31:31;10.57;;;5.45;;
72388;SDS011;60566;48.062;9.930;2022-09-24T05:33:57;8.18;;;5.43;;
72388;SDS011;60566;48.062;9.930;2022-09-24T05:36:22;10.88;;;5.57;;
72388;SDS011;60566;48.062;9.930;2022-09-24T05:38:47;7.80;;;4.70;;
72388;SDS011;60566;48.062;9.930;2022-09-24T05:41:13;8.32;;;5.35;;
72388;SDS011;60566;48.062;9.930;2022-09-24T05:43:38;8.30;;;5.78;;
72388;SDS011;60566;48.062;9.930;2022-09-24T05:46:05;9.10;;;4.97;;
72388;SDS011;60566;48.062;9.930;2022-09-24T05:48:31;13.88;;;5.80;;
72388;SDS011;60566;48.062;9.930;2022-09-24T05:50:56;8.70;;;5.32;;
72388;SDS011;60566;48.062;9.930;2022-09-24T05:53:24;8.10;;;5.50;;
72388;SDS011;60566;48.062;9.930;2022-09-24T05:55:50;10.80;;;6.10;;
72388;SDS011;60566;48.062;9.930;2022-09-24T05:58:15;9.77;;;6.63;;
72388;SDS011;60566;48.062;9.930;2022-09-24T06:00:40;9.70;;;6.55;;
72388;SDS011;60566;48.062;9.930;2022-09-24T06:03:10;11.60;;;6.13;;
72388;SDS011;60566;48.062;9.930;2022-09-24T06:05:36;10.27;;;6.80;;
72388;SDS011;60566;48.062;9.930;2022-09-24T06:08:01;12.52;;;7.28;;
72388;SDS011;60566;48.062;9.930;2022-09-24T06:10:27;12.73;;;7.18;;
72388;SDS011;60566;48.062;9.930;2022-09-24T06:12:53;11.13;;;6.90;;
72388;SDS011;60566;48.062;9.930;2022-09-24T06:15:18;14.80;;;7.40;;
72388;SDS011;60566;48.062;9.930;2022-09-24T06:17:44;11.00;;;7.10;;
72388;SDS011;60566;48.062;9.930;2022-09-24T06:20:12;11.98;;;7.55;;
72388;SDS011;60566;48.062;9.930;2022-09-24T06:22:37;10.00;;;6.32;;
72388;SDS011;60566;48.062;9.930;2022-09-24T06:25:03;11.52;;;6.60;;
72388;SDS011;60566;48.062;9.930;2022-09-24T06:27:29;14.75;;;8.13;;
72388;SDS011;60566;48.062;9.930;2022-09-24T06:29:55;12.70;;;6.88;;
72388;SDS011;60566;48.062;9.930;2022-09-24T06:32:21;14.80;;;8.65;;
72388;SDS011;60566;48.062;9.930;2022-09-24T06:34:47;15.07;;;9.10;;
72388;SDS011;60566;48.062;9.930;2022-09-24T06:37:14;12.15;;;8.50;;
72388;SDS011;60566;48.062;9.930;2022-09-24T06:39:39;13.88;;;9.00;;
72388;SDS011;60566;48.062;9.930;2022-09-24T06:42:04;15.05;;;9.10;;
72388;SDS011;60566;48.062;9.930;2022-09-24T06:44:30;18.92;;;8.88;;
72388;SDS011;60566;48.062;9.930;2022-09-24T06:46:55;13.65;;;9.23;;
72388;SDS011;60566;48.062;9.930;2022-09-24T06:49:20;16.02;;;8.90;;
72388;SDS011;60566;48.062;9.930;2022-09-24T06:51:46;15.80;;;9.85;;
72388;SDS011;60566;48.062;9.930;2022-09-24T06:54:13;15.65;;;9.52;;
72388;SDS011;60566;48.062;9.930;2022-09-24T06:56:38;17.75;;;11.25;;
72388;SDS011;60566;48.062;9.930;2022-09-24T06:59:03;15.05;;;9.00;;
72388;SDS011;60566;48.062;9.930;2022-09-24T07:01:29;16.88;;;10.23;;
72388;SDS011;60566;48.062;9.930;2022-09-24T07:03:54;14.75;;;9.52;;
72388;SDS011;60566;48.062;9.930;2022-09-24T07:06:20;16.50;;;10.10;;
72388;SDS011;60566;48.062;9.930;2022-09-24T07:08:48;18.95;;;10.55;;
72388;SDS011;60566;48.062;9.930;2022-09-24T07:11:15;18.15;;;9.95;;
72388;SDS011;60566;48.062;9.930;2022-09-24T07:13:41;19.30;;;10.88;;
72388;SDS011;60566;48.062;9.930;2022-09-24T07:16:06;20.05;;;11.02;;
72388;SDS011;60566;48.062;9.930;2022-09-24T07:18:31;18.95;;;11.32;;
72388;SDS011;60566;48.062;9.930;2022-09-24T07:20:57;18.42;;;11.50;;
72388;SDS011;60566;48.062;9.930;2022-09-24T07:23:22;18.23;;;10.35;;
72388;SDS011;60566;48.062;9.930;2022-09-24T07:25:48;20.02;;;11.80;;
72388;SDS011;60566;48.062;9.930;2022-09-24T07:28:15;22.13;;;11.20;;
72388;SDS011;60566;48.062;9.930;2022-09-24T07:30:40;21.23;;;11.20;;
72388;SDS011;60566;48.062;9.930;2022-09-24T07:33:06;16.67;;;10.95;;
72388;SDS011;60566;48.062;9.930;2022-09-24T07:35:32;19.30;;;11.60;;
72388;SDS011;60566;48.062;9.930;2022-09-24T07:37:58;17.50;;;10.43;;
72388;SDS011;60566;48.062;9.930;2022-09-24T07:40:24;16.73;;;10.60;;
72388;SDS011;60566;48.062;9.930;2022-09-24T07:42:49;17.45;;;11.25;;
72388;SDS011;60566;48.062;9.930;2022-09-24T07:45:16;19.40;;;10.80;;
72388;SDS011;60566;48.062;9.930;2022-09-24T07:47:41;19.10;;;10.63;;
72388;SDS011;60566;48.062;9.930;2022-09-24T07:50:07;17.70;;;10.80;;
72388;SDS011;60566;48.062;9.930;2022-09-24T07:52:32;22.70;;;11.25;;
72388;SDS011;60566;48.062;9.930;2022-09-24T07:54:58;21.05;;;11.75;;
72388;SDS011;60566;48.062;9.930;2022-09-24T07:57:23;18.38;;;10.82;;
72388;SDS011;60566;48.062;9.930;2022-09-24T07:59:49;18.15;;;11.07;;
72388;SDS011;60566;48.062;9.930;2022-09-24T08:02:16;16.20;;;10.68;;
72388;SDS011;60566;48.062;9.930;2022-09-24T08:04:41;17.90;;;10.88;;
72388;SDS011;60566;48.062;9.930;2022-09-24T08:07:07;17.33;;;10.73;;
72388;SDS011;60566;48.062;9.930;2022-09-24T08:09:32;16.70;;;10.30;;
72388;SDS011;60566;48.062;9.930;2022-09-24T08:11:57;16.20;;;10.02;;
72388;SDS011;60566;48.062;9.930;2022-09-24T08:14:23;17.67;;;10.55;;
72388;SDS011;60566;48.062;9.930;2022-09-24T08:16:48;17.20;;;10.38;;
72388;SDS011;60566;48.062;9.930;2022-09-24T08:19:15;14.88;;;8.52;;
72388;SDS011;60566;48.062;9.930;2022-09-24T08:21:40;15.60;;;9.48;;
72388;SDS011;60566;48.062;9.930;2022-09-24T08:24:06;12.43;;;8.93;;
72388;SDS011;60566;48.062;9.930;2022-09-24T08:26:31;14.55;;;8.95;;
72388;SDS011;60566;48.062;9.930;2022-09-24T08:28:57;17.52;;;9.88;;
72388;SDS011;60566;48.062;9.930;2022-09-24T08:31:22;14.68;;;9.43;;
72388;SDS011;60566;48.062;9.930;2022-09-24T08:33:47;14.95;;;8.73;;
72388;SDS011;60566;48.062;9.930;2022-09-24T08:36:14;15.68;;;10.13;;
72388;SDS011;60566;48.062;9.930;2022-09-24T08:38:40;15.05;;;9.93;;
72388;SDS011;60566;48.062;9.930;2022-09-24T08:41:13;16.70;;;11.15;;
72388;SDS011;60566;48.062;9.930;2022-09-24T08:43:49;15.88;;;9.88;;
72388;SDS011;60566;48.062;9.930;2022-09-24T08:46:19;15.63;;;8.93;;
72388;SDS011;60566;48.062;9.930;2022-09-24T08:48:46;13.85;;;8.98;;
72388;SDS011;60566;48.062;9.930;2022-09-24T08:51:16;14.57;;;9.15;;
72388;SDS011;60566;48.062;9.930;2022-09-24T08:53:44;14.65;;;9.73;;
72388;SDS011;60566;48.062;9.930;2022-09-24T08:56:11;16.60;;;10.23;;
72388;SDS011;60566;48.062;9.930;2022-09-24T08:58:39;13.95;;;8.98;;
72388;SDS011;60566;48.062;9.930;2022-09-24T09:01:12;14.45;;;9.15;;
72388;SDS011;60566;48.062;9.930;2022-09-24T09:03:43;18.17;;;9.75;;
72388;SDS011;60566;48.062;9.930;2022-09-24T09:06:11;17.90;;;10.02;;
72388;SDS011;60566;48.062;9.930;2022-09-24T09:08:48;16.45;;;9.93;;
72388;SDS011;60566;48.062;9.930;2022-09-24T09:11:16;16.92;;;9.85;;
72388;SDS011;60566;48.062;9.930;2022-09-24T09:13:48;13.82;;;8.27;;
72388;SDS011;60566;48.062;9.930;2022-09-24T09:16:20;15.68;;;9.40;;
72388;SDS011;60566;48.062;9.930;2022-09-24T09:18:47;12.77;;;8.10;;
72388;SDS011;60566;48.062;9.930;2022-09-24T09:21:16;14.85;;;8.80;;
72388;SDS011;60566;48.062;9.930;2022-09-24T09:23:45;13.60;;;8.73;;
72388;SDS011;60566;48.062;9.930;2022-09-24T09:26:11;12.88;;;7.30;;
72388;SDS011;60566;48.062;9.930;2022-09-24T09:28:37;12.77;;;7.60;;
72388;SDS011;60566;48.062;9.930;2022-09-24T09:31:03;11.43;;;7.38;;
72388;SDS011;60566;48.062;9.930;2022-09-24T09:33:35;11.20;;;7.03;;
72388;SDS011;60566;48.062;9.930;2022-09-24T09:36:12;11.55;;;7.53;;
72388;SDS011;60566;48.062;9.930;2022-09-24T09:38:58;15.05;;;7.20;;
72388;SDS011;60566;48.062;9.930;2022-09-24T09:41:31;11.45;;;7.45;;
72388;SDS011;60566;48.062;9.930;2022-09-24T09:43:59;13.77;;;8.30;;
72388;SDS011;60566;48.062;9.930;2022-09-24T09:46:32;14.05;;;7.45;;
72388;SDS011;60566;48.062;9.930;2022-09-24T09:48:59;13.48;;;7.78;;
72388;SDS011;60566;48.062;9.930;2022-09-24T09:51:27;11.63;;;7.47;;
72388;SDS011;60566;48.062;9.930;2022-09-24T09:53:56;11.02;;;7.13;;
72388;SDS011;60566;48.062;9.930;2022-09-24T09:56:23;11.82;;;8.10;;
72388;SDS011;60566;48.062;9.930;2022-09-24T09:58:49;12.13;;;7.88;;
72388;SDS011;60566;48.062;9.930;2022-09-24T10:01:15;12.50;;;7.47;;
72388;SDS011;60566;48.062;9.930;2022-09-24T10:03:46;11.60;;;7.47;;
72388;SDS011;60566;48.062;9.930;2022-09-24T10:06:12;13.07;;;7.45;;
72388;SDS011;60566;48.062;9.930;2022-09-24T10:08:39;13.18;;;7.38;;
72388;SDS011;60566;48.062;9.930;2022-09-24T10:11:09;10.48;;;6.93;;
72388;SDS011;60566;48.062;9.930;2022-09-24T10:13:39;12.15;;;7.05;;
72388;SDS011;60566;48.062;9.930;2022-09-24T10:16:07;14.05;;;7.88;;
72388;SDS011;60566;48.062;9.930;2022-09-24T10:18:33;11.88;;;6.65;;
72388;SDS011;60566;48.062;9.930;2022-09-24T10:21:02;12.07;;;7.15;;
72388;SDS011;60566;48.062;9.930;2022-09-24T10:23:31;12.57;;;7.15;;
72388;SDS011;60566;48.062;9.930;2022-09-24T10:25:59;12.65;;;7.18;;
72388;SDS011;60566;48.062;9.930;2022-09-24T10:28:27;12.07;;;6.90;;
72388;SDS011;60566;48.062;9.930;2022-09-24T10:30:53;11.55;;;6.93;;
72388;SDS011;60566;48.062;9.930;2022-09-24T10:33:21;11.52;;;7.15;;
72388;SDS011;60566;48.062;9.930;2022-09-24T10:35:46;10.32;;;6.85;;
72388;SDS011;60566;48.062;9.930;2022-09-24T10:38:15;10.75;;;7.22;;
72388;SDS011;60566;48.062;9.930;2022-09-24T10:40:42;12.20;;;8.65;;
72388;SDS011;60566;48.062;9.930;2022-09-24T10:43:14;12.52;;;7.38;;
72388;SDS011;60566;48.062;9.930;2022-09-24T10:46:04;13.27;;;8.02;;
72388;SDS011;60566;48.062;9.930;2022-09-24T10:48:34;11.43;;;6.93;;
72388;SDS011;60566;48.062;9.930;2022-09-24T10:51:05;10.68;;;6.18;;
72388;SDS011;60566;48.062;9.930;2022-09-24T10:53:44;9.27;;;6.25;;
72388;SDS011;60566;48.062;9.930;2022-09-24T10:56:22;9.82;;;5.70;;
72388;SDS011;60566;48.062;9.930;2022-09-24T10:59:04;13.15;;;6.97;;
72388;SDS011;60566;48.062;9.930;2022-09-24T11:01:50;10.68;;;6.03;;
72388;SDS011;60566;48.062;9.930;2022-09-24T11:04:46;10.90;;;6.28;;
72388;SDS011;60566;48.062;9.930;2022-09-24T11:07:21;10.43;;;6.78;;
72388;SDS011;60566;48.062;9.930;2022-09-24T11:09:55;14.00;;;6.43;;
72388;SDS011;60566;48.062;9.930;2022-09-24T11:12:24;8.93;;;5.35;;
72388;SDS011;60566;48.062;9.930;2022-09-24T11:15:01;8.88;;;5.28;;
72388;SDS011;60566;48.062;9.930;2022-09-24T11:17:37;9.60;;;6.28;;
72388;SDS011;60566;48.062;9.930;2022-09-24T11:20:13;8.57;;;5.72;;
72388;SDS011;60566;48.062;9.930;2022-09-24T11:22:46;9.10;;;5.53;;
72388;SDS011;60566;48.062;9.930;2022-09-24T11:25:22;10.60;;;6.30;;
72388;SDS011;60566;48.062;9.930;2022-09-24T11:27:55;10.68;;;5.88;;
72388;SDS011;60566;48.062;9.930;2022-09-24T11:30:27;9.52;;;5.93;;
72388;SDS011;60566;48.062;9.930;2022-09-24T11:33:02;12.00;;;5.57;;
72388;SDS011;60566;48.062;9.930;2022-09-24T11:35:44;9.75;;;5.32;;
72388;SDS011;60566;48.062;9.930;2022-09-24T11:38:18;8.80;;;5.55;;
72388;SDS011;60566;48.062;9.930;2022-09-24T11:40:58;7.45;;;4.40;;
72388;SDS011;60566;48.062;9.930;2022-09-24T11:43:36;7.47;;;4.43;;
72388;SDS011;60566;48.062;9.930;2022-09-24T11:46:10;8.60;;;4.50;;
72388;SDS011;60566;48.062;9.930;2022-09-24T11:48:50;8.98;;;4.57;;
72388;SDS011;60566;48.062;9.930;2022-09-24T11:51:22;10.77;;;4.70;;
72388;SDS011;60566;48.062;9.930;2022-09-24T11:53:52;7.00;;;4.55;;
72388;SDS011;60566;48.062;9.930;2022-09-24T11:56:19;7.78;;;4.63;;
72388;SDS011;60566;48.062;9.930;2022-09-24T11:58:48;6.25;;;4.00;;
72388;SDS011;60566;48.062;9.930;2022-09-24T12:01:16;9.15;;;4.60;;
72388;SDS011;60566;48.062;9.930;2022-09-24T12:03:46;6.90;;;4.05;;
72388;SDS011;60566;48.062;9.930;2022-09-24T12:06:16;5.90;;;3.80;;
72388;SDS011;60566;48.062;9.930;2022-09-24T12:08:45;6.20;;;3.63;;
72388;SDS011;60566;48.062;9.930;2022-09-24T12:11:14;7.03;;;4.03;;
72388;SDS011;60566;48.062;9.930;2022-09-24T12:13:44;6.30;;;3.80;;
72388;SDS011;60566;48.062;9.930;2022-09-24T12:16:12;7.07;;;4.20;;
72388;SDS011;60566;48.062;9.930;2022-09-24T12:18:41;7.13;;;3.83;;
72388;SDS011;60566;48.062;9.930;2022-09-24T12:21:10;6.63;;;4.32;;
72388;SDS011;60566;48.062;9.930;2022-09-24T12:23:38;8.00;;;4.57;;
72388;SDS011;60566;48.062;9.930;2022-09-24T12:26:05;8.40;;;4.15;;
72388;SDS011;60566;48.062;9.930;2022-09-24T12:28:34;6.65;;;3.95;;
72388;SDS011;60566;48.062;9.930;2022-09-24T12:31:01;5.95;;;4.00;;
72388;SDS011;60566;48.062;9.930;2022-09-24T12:33:30;9.95;;;4.22;;
72388;SDS011;60566;48.062;9.930;2022-09-24T12:36:00;7.43;;;3.45;;
72388;SDS011;60566;48.062;9.930;2022-09-24T12:38:30;5.82;;;3.58;;
72388;SDS011;60566;48.062;9.930;2022-09-24T12:43:43;7.15;;;3.80;;
72388;SDS011;60566;48.062;9.930;2022-09-24T12:46:14;6.53;;;3.40;;
72388;SDS011;60566;48.062;9.930;2022-09-24T12:48:41;6.43;;;4.13;;
72388;SDS011;60566;48.062;9.930;2022-09-24T12:51:08;11.05;;;6.00;;
72388;SDS011;60566;48.062;9.930;2022-09-24T12:53:36;6.15;;;3.70;;
72388;SDS011;60566;48.062;9.930;2022-09-24T12:56:03;5.38;;;3.60;;
72388;SDS011;60566;48.062;9.930;2022-09-24T12:58:30;7.30;;;3.25;;
72388;SDS011;60566;48.062;9.930;2022-09-24T13:01:06;5.90;;;3.28;;
72388;SDS011;60566;48.062;9.930;2022-09-24T13:03:36;5.70;;;3.10;;
72388;SDS011;60566;48.062;9.930;2022-09-24T13:06:03;5.20;;;3.05;;
72388;SDS011;60566;48.062;9.930;2022-09-24T13:08:43;4.22;;;2.63;;
72388;SDS011;60566;48.062;9.930;2022-09-24T13:11:23;4.90;;;2.70;;
72388;SDS011;60566;48.062;9.930;2022-09-24T13:13:56;6.47;;;3.00;;
72388;SDS011;60566;48.062;9.930;2022-09-24T13:16:23;7.60;;;4.15;;
72388;SDS011;60566;48.062;9.930;2022-09-24T13:18:50;5.45;;;2.80;;
72388;SDS011;60566;48.062;9.930;2022-09-24T13:21:17;6.07;;;3.45;;
72388;SDS011;60566;48.062;9.930;2022-09-24T13:23:46;7.72;;;3.33;;
72388;SDS011;60566;48.062;9.930;2022-09-24T13:26:14;5.40;;;3.20;;
72388;SDS011;60566;48.062;9.930;2022-09-24T13:28:51;4.82;;;3.13;;
72388;SDS011;60566;48.062;9.930;2022-09-24T13:31:18;4.68;;;2.40;;
72388;SDS011;60566;48.062;9.930;2022-09-24T13:33:48;6.28;;;3.25;;
72388;SDS011;60566;48.062;9.930;2022-09-24T13:36:16;6.68;;;2.60;;
72388;SDS011;60566;48.062;9.930;2022-09-24T13:38:44;7.22;;;3.78;;
72388;SDS011;60566;48.062;9.930;2022-09-24T13:41:21;5.38;;;2.92;;
72388;SDS011;60566;48.062;9.930;2022-09-24T13:43:50;8.20;;;3.92;;
72388;SDS011;60566;48.062;9.930;2022-09-24T13:46:17;10.73;;;5.45;;
72388;SDS011;60566;48.062;9.930;2022-09-24T13:48:44;6.88;;;3.95;;
72388;SDS011;60566;48.062;9.930;2022-09-24T13:51:13;7.82;;;3.50;;
72388;SDS011;60566;48.062;9.930;2022-09-24T13:53:41;4.97;;;3.20;;
72388;SDS011;60566;48.062;9.930;2022-09-24T13:56:12;5.63;;;3.28;;
72388;SDS011;60566;48.062;9.930;2022-09-24T13:58:38;8.70;;;3.58;;
72388;SDS011;60566;48.062;9.930;2022-09-24T14:01:05;5.80;;;3.38;;
72388;SDS011;60566;48.062;9.930;2022-09-24T14:03:35;5.80;;;3.20;;
72388;SDS011;60566;48.062;9.930;2022-09-24T14:06:01;5.38;;;3.03;;
72388;SDS011;60566;48.062;9.930;2022-09-24T14:08:33;4.88;;;2.60;;
72388;SDS011;60566;48.062;9.930;2022-09-24T14:11:03;4.90;;;2.88;;
72388;SDS011;60566;48.062;9.930;2022-09-24T14:13:30;5.75;;;3.00;;
72388;SDS011;60566;48.062;9.930;2022-09-24T14:15:56;5.70;;;3.33;;
72388;SDS011;60566;48.062;9.930;2022-09-24T14:18:23;5.28;;;3.00;;
72388;SDS011;60566;48.062;9.930;2022-09-24T14:20:51;7.28;;;4.07;;
72388;SDS011;60566;48.062;9.930;2022-09-24T14:23:19;8.13;;;3.50;;
72388;SDS011;60566;48.062;9.930;2022-09-24T14:25:46;7.32;;;3.40;;
72388;SDS011;60566;48.062;9.930;2022-09-24T14:28:13;11.52;;;6.07;;
72388;SDS011;60566;48.062;9.930;2022-09-24T14:30:46;5.10;;;3.15;;
72388;SDS011;60566;48.062;9.930;2022-09-24T14:35:38;4.70;;;2.67;;
72388;SDS011;60566;48.062;9.930;2022-09-24T14:38:05;4.25;;;2.65;;
72388;SDS011;60566;48.062;9.930;2022-09-24T14:40:37;3.75;;;2.13;;
72388;SDS011;60566;48.062;9.930;2022-09-24T14:43:04;4.72;;;2.30;;
72388;SDS011;60566;48.062;9.930;2022-09-24T14:45:30;3.15;;;1.80;;
72388;SDS011;60566;48.062;9.930;2022-09-24T14:48:02;3.97;;;2.13;;